sensor_id;sensor_type;location;lat;lon;timestamp;temperature;humidity
790;DHT22;378;48.844;9.156;2023-08-12T00:02:01;20.90;99.90
790;DHT22;378;48.844;9.156;2023-08-12T00:04:28;20.90;99.90
790;DHT22;378;48.844;9.156;2023-08-12T00:06:54;21.00;99.90
790;DHT22;378;48.844;9.156;2023-08-12T00:09:21;21.00;99.90
790;DHT22;378;48.844;9.156;2023-08-12T00:11:48;21.00;99.90
790;DHT22;378;48.844;9.156;2023-08-12T00:14:15;21.00;99.90
790;DHT22;378;48.844;9.156;2023-08-12T00:16:42;20.90;99.90
790;DHT22;378;48.844;9.156;2023-08-12T00:19:10;20.80;99.90
790;DHT22;378;48.844;9.156;2023-08-12T00:21:37;20.70;99.90
790;DHT22;378;48.844;9.156;2023-08-12T00:24:04;20.70;99.90
790;DHT22;378;48.844;9.156;2023-08-12T00:26:31;20.60;99.90
790;DHT22;378;48.844;9.156;2023-08-12T00:28:58;20.60;99.90
790;DHT22;378;48.844;9.156;2023-08-12T00:31:25;20.60;99.90
790;DHT22;378;48.844;9.156;2023-08-12T00:33:52;20.60;99.90
790;DHT22;378;48.844;9.156;2023-08-12T00:36:20;20.60;99.90
790;DHT22;378;48.844;9.156;2023-08-12T00:38:47;20.70;99.90
790;DHT22;378;48.844;9.156;2023-08-12T00:41:14;20.60;99.90
790;DHT22;378;48.844;9.156;2023-08-12T00:43:40;20.70;99.90
790;DHT22;378;48.844;9.156;2023-08-12T00:46:07;20.60;99.90
790;DHT22;378;48.844;9.156;2023-08-12T00:48:34;20.70;99.90
790;DHT22;378;48.844;9.156;2023-08-12T00:51:01;20.70;99.90
790;DHT22;378;48.844;9.156;2023-08-12T00:53:30;20.60;99.90
790;DHT22;378;48.844;9.156;2023-08-12T00:55:57;20.60;99.90
790;DHT22;378;48.844;9.156;2023-08-12T00:58:24;20.60;99.90
790;DHT22;378;48.844;9.156;2023-08-12T01:00:51;20.60;99.90
790;DHT22;378;48.844;9.156;2023-08-12T01:03:18;20.60;99.90
790;DHT22;378;48.844;9.156;2023-08-12T01:05:46;20.60;99.90
790;DHT22;378;48.844;9.156;2023-08-12T01:08:13;20.60;99.90
790;DHT22;378;48.844;9.156;2023-08-12T01:10:54;20.60;99.90
790;DHT22;378;48.844;9.156;2023-08-12T01:13:32;20.50;99.90
790;DHT22;378;48.844;9.156;2023-08-12T01:16:01;20.50;99.90
790;DHT22;378;48.844;9.156;2023-08-12T01:18:31;20.50;99.90
790;DHT22;378;48.844;9.156;2023-08-12T01:20:58;20.50;99.90
790;DHT22;378;48.844;9.156;2023-08-12T01:23:27;20.50;99.90
790;DHT22;378;48.844;9.156;2023-08-12T01:25:54;20.50;99.90
790;DHT22;378;48.844;9.156;2023-08-12T01:28:21;20.60;99.90
790;DHT22;378;48.844;9.156;2023-08-12T01:30:53;20.50;99.90
790;DHT22;378;48.844;9.156;2023-08-12T01:33:27;20.50;99.90
790;DHT22;378;48.844;9.156;2023-08-12T01:36:02;20.60;99.90
790;DHT22;378;48.844;9.156;2023-08-12T01:38:34;20.50;99.90
790;DHT22;378;48.844;9.156;2023-08-12T01:41:02;20.50;99.90
790;DHT22;378;48.844;9.156;2023-08-12T01:43:29;20.50;99.90
790;DHT22;378;48.844;9.156;2023-08-12T01:45:57;20.50;99.90
790;DHT22;378;48.844;9.156;2023-08-12T01:48:24;20.50;99.90
790;DHT22;378;48.844;9.156;2023-08-12T01:50:51;20.50;99.90
790;DHT22;378;48.844;9.156;2023-08-12T01:53:18;20.40;99.90
790;DHT22;378;48.844;9.156;2023-08-12T01:55:46;20.40;99.90
790;DHT22;378;48.844;9.156;2023-08-12T01:58:13;20.40;99.90
790;DHT22;378;48.844;9.156;2023-08-12T02:00:39;20.40;99.90
790;DHT22;378;48.844;9.156;2023-08-12T02:03:06;20.40;99.90
790;DHT22;378;48.844;9.156;2023-08-12T02:05:33;20.40;99.90
790;DHT22;378;48.844;9.156;2023-08-12T02:08:03;20.40;99.90
790;DHT22;378;48.844;9.156;2023-08-12T02:10:29;20.40;99.90
790;DHT22;378;48.844;9.156;2023-08-12T02:12:59;20.40;99.90
790;DHT22;378;48.844;9.156;2023-08-12T02:15:26;20.40;99.90
790;DHT22;378;48.844;9.156;2023-08-12T02:17:53;20.40;99.90
790;DHT22;378;48.844;9.156;2023-08-12T02:20:19;20.40;99.90
790;DHT22;378;48.844;9.156;2023-08-12T02:22:46;20.40;99.90
790;DHT22;378;48.844;9.156;2023-08-12T02:25:13;20.40;99.90
790;DHT22;378;48.844;9.156;2023-08-12T02:27:40;20.40;99.90
790;DHT22;378;48.844;9.156;2023-08-12T02:30:09;20.40;99.90
790;DHT22;378;48.844;9.156;2023-08-12T02:32:36;20.40;99.90
790;DHT22;378;48.844;9.156;2023-08-12T02:35:04;20.40;99.90
790;DHT22;378;48.844;9.156;2023-08-12T02:37:31;20.40;99.90
790;DHT22;378;48.844;9.156;2023-08-12T02:39:58;20.40;99.90
790;DHT22;378;48.844;9.156;2023-08-12T02:42:24;20.40;99.90
790;DHT22;378;48.844;9.156;2023-08-12T02:44:51;20.40;99.90
790;DHT22;378;48.844;9.156;2023-08-12T02:47:19;20.40;99.90
790;DHT22;378;48.844;9.156;2023-08-12T02:49:46;20.40;99.90
790;DHT22;378;48.844;9.156;2023-08-12T02:52:13;20.40;99.90
790;DHT22;378;48.844;9.156;2023-08-12T02:54:40;20.40;99.90
790;DHT22;378;48.844;9.156;2023-08-12T02:57:07;20.40;99.90
790;DHT22;378;48.844;9.156;2023-08-12T02:59:34;20.40;99.90
790;DHT22;378;48.844;9.156;2023-08-12T03:02:01;20.40;99.90
790;DHT22;378;48.844;9.156;2023-08-12T03:04:30;20.40;99.90
790;DHT22;378;48.844;9.156;2023-08-12T03:06:57;20.40;99.90
790;DHT22;378;48.844;9.156;2023-08-12T03:09:23;20.40;99.90
790;DHT22;378;48.844;9.156;2023-08-12T03:11:50;20.40;99.90
790;DHT22;378;48.844;9.156;2023-08-12T03:14:17;20.40;99.90
790;DHT22;378;48.844;9.156;2023-08-12T03:16:44;20.40;99.90
790;DHT22;378;48.844;9.156;2023-08-12T03:19:11;20.40;99.90
790;DHT22;378;48.844;9.156;2023-08-12T03:21:39;20.40;99.90
790;DHT22;378;48.844;9.156;2023-08-12T03:24:06;20.30;99.90
790;DHT22;378;48.844;9.156;2023-08-12T03:26:33;20.30;99.90
790;DHT22;378;48.844;9.156;2023-08-12T03:29:00;20.30;99.90
790;DHT22;378;48.844;9.156;2023-08-12T03:31:26;20.30;99.90
790;DHT22;378;48.844;9.156;2023-08-12T03:33:53;20.30;99.90
790;DHT22;378;48.844;9.156;2023-08-12T03:36:20;20.30;99.90
790;DHT22;378;48.844;9.156;2023-08-12T03:38:48;20.20;99.90
790;DHT22;378;48.844;9.156;2023-08-12T03:41:15;20.20;99.90
790;DHT22;378;48.844;9.156;2023-08-12T03:43:42;20.20;99.90
790;DHT22;378;48.844;9.156;2023-08-12T03:46:09;20.20;99.90
790;DHT22;378;48.844;9.156;2023-08-12T03:48:36;20.20;99.90
790;DHT22;378;48.844;9.156;2023-08-12T03:51:02;20.20;99.90
790;DHT22;378;48.844;9.156;2023-08-12T03:53:29;20.10;99.90
790;DHT22;378;48.844;9.156;2023-08-12T03:55:58;20.10;99.90
790;DHT22;378;48.844;9.156;2023-08-12T03:58:24;20.20;99.90
790;DHT22;378;48.844;9.156;2023-08-12T04:00:51;20.20;99.90
790;DHT22;378;48.844;9.156;2023-08-12T04:03:18;20.20;99.90
790;DHT22;378;48.844;9.156;2023-08-12T04:05:48;20.20;99.90
790;DHT22;378;48.844;9.156;2023-08-12T04:08:18;20.10;99.90
790;DHT22;378;48.844;9.156;2023-08-12T04:10:45;20.10;99.90
790;DHT22;378;48.844;9.156;2023-08-12T04:13:14;20.20;99.90
790;DHT22;378;48.844;9.156;2023-08-12T04:15:42;20.20;99.90
790;DHT22;378;48.844;9.156;2023-08-12T04:18:08;20.10;99.90
790;DHT22;378;48.844;9.156;2023-08-12T04:20:37;20.20;99.90
790;DHT22;378;48.844;9.156;2023-08-12T04:23:04;20.20;99.90
790;DHT22;378;48.844;9.156;2023-08-12T04:25:30;20.20;99.90
790;DHT22;378;48.844;9.156;2023-08-12T04:27:57;20.20;99.90
790;DHT22;378;48.844;9.156;2023-08-12T04:30:26;20.20;99.90
790;DHT22;378;48.844;9.156;2023-08-12T04:32:53;20.20;99.90
790;DHT22;378;48.844;9.156;2023-08-12T04:35:19;20.30;99.90
790;DHT22;378;48.844;9.156;2023-08-12T04:37:46;20.20;99.90
790;DHT22;378;48.844;9.156;2023-08-12T04:40:13;20.20;99.90
790;DHT22;378;48.844;9.156;2023-08-12T04:42:40;20.10;99.90
790;DHT22;378;48.844;9.156;2023-08-12T04:45:07;20.10;99.90
790;DHT22;378;48.844;9.156;2023-08-12T04:47:35;20.20;99.90
790;DHT22;378;48.844;9.156;2023-08-12T04:50:04;20.20;99.90
790;DHT22;378;48.844;9.156;2023-08-12T04:52:32;20.30;99.90
790;DHT22;378;48.844;9.156;2023-08-12T04:54:58;20.30;99.90
790;DHT22;378;48.844;9.156;2023-08-12T04:57:25;20.20;99.90
790;DHT22;378;48.844;9.156;2023-08-12T04:59:53;20.20;99.90
790;DHT22;378;48.844;9.156;2023-08-12T05:02:20;20.20;99.90
790;DHT22;378;48.844;9.156;2023-08-12T05:04:49;20.30;99.90
790;DHT22;378;48.844;9.156;2023-08-12T05:07:16;20.30;99.90
790;DHT22;378;48.844;9.156;2023-08-12T05:09:43;20.30;99.90
790;DHT22;378;48.844;9.156;2023-08-12T05:12:11;20.40;99.90
790;DHT22;378;48.844;9.156;2023-08-12T05:14:39;20.30;99.90
790;DHT22;378;48.844;9.156;2023-08-12T05:17:06;20.30;99.90
790;DHT22;378;48.844;9.156;2023-08-12T05:19:33;20.20;99.90
790;DHT22;378;48.844;9.156;2023-08-12T05:22:02;20.10;99.90
790;DHT22;378;48.844;9.156;2023-08-12T05:24:28;20.00;99.90
790;DHT22;378;48.844;9.156;2023-08-12T05:26:55;19.90;99.90
790;DHT22;378;48.844;9.156;2023-08-12T05:29:22;19.90;99.90
790;DHT22;378;48.844;9.156;2023-08-12T05:31:49;19.80;99.90
790;DHT22;378;48.844;9.156;2023-08-12T05:34:16;19.70;99.90
790;DHT22;378;48.844;9.156;2023-08-12T05:36:43;19.70;99.90
790;DHT22;378;48.844;9.156;2023-08-12T05:39:11;19.70;99.90
790;DHT22;378;48.844;9.156;2023-08-12T05:41:38;19.70;99.90
790;DHT22;378;48.844;9.156;2023-08-12T05:44:05;19.70;99.90
790;DHT22;378;48.844;9.156;2023-08-12T05:46:32;19.60;99.90
790;DHT22;378;48.844;9.156;2023-08-12T05:48:59;19.70;99.90
790;DHT22;378;48.844;9.156;2023-08-12T05:51:26;19.70;99.90
790;DHT22;378;48.844;9.156;2023-08-12T05:53:53;19.70;99.90
790;DHT22;378;48.844;9.156;2023-08-12T05:56:21;19.70;99.90
790;DHT22;378;48.844;9.156;2023-08-12T05:58:48;19.70;99.90
790;DHT22;378;48.844;9.156;2023-08-12T06:01:14;19.80;99.90
790;DHT22;378;48.844;9.156;2023-08-12T06:03:41;19.80;99.90
790;DHT22;378;48.844;9.156;2023-08-12T06:06:08;19.80;99.90
790;DHT22;378;48.844;9.156;2023-08-12T06:08:35;19.80;99.90
790;DHT22;378;48.844;9.156;2023-08-12T06:11:02;19.80;99.90
790;DHT22;378;48.844;9.156;2023-08-12T06:13:30;19.70;99.90
790;DHT22;378;48.844;9.156;2023-08-12T06:15:57;19.70;99.90
790;DHT22;378;48.844;9.156;2023-08-12T06:18:24;19.70;99.90
790;DHT22;378;48.844;9.156;2023-08-12T06:20:51;19.70;99.90
790;DHT22;378;48.844;9.156;2023-08-12T06:23:18;19.60;99.90
790;DHT22;378;48.844;9.156;2023-08-12T06:25:44;19.60;99.90
790;DHT22;378;48.844;9.156;2023-08-12T06:28:11;19.60;99.90
790;DHT22;378;48.844;9.156;2023-08-12T06:30:40;19.50;99.90
790;DHT22;378;48.844;9.156;2023-08-12T06:33:06;19.50;99.90
790;DHT22;378;48.844;9.156;2023-08-12T06:35:33;19.50;99.90
790;DHT22;378;48.844;9.156;2023-08-12T06:38:00;19.40;99.90
790;DHT22;378;48.844;9.156;2023-08-12T06:40:27;19.40;99.90
790;DHT22;378;48.844;9.156;2023-08-12T06:42:56;19.50;99.90
790;DHT22;378;48.844;9.156;2023-08-12T06:45:23;19.60;99.90
790;DHT22;378;48.844;9.156;2023-08-12T06:47:51;19.70;99.90
790;DHT22;378;48.844;9.156;2023-08-12T06:50:18;19.80;99.90
790;DHT22;378;48.844;9.156;2023-08-12T06:52:45;19.90;99.90
790;DHT22;378;48.844;9.156;2023-08-12T06:55:12;19.90;99.90
790;DHT22;378;48.844;9.156;2023-08-12T06:57:39;20.00;99.90
790;DHT22;378;48.844;9.156;2023-08-12T07:00:07;20.00;99.90
790;DHT22;378;48.844;9.156;2023-08-12T07:02:34;20.20;99.90
790;DHT22;378;48.844;9.156;2023-08-12T07:05:02;20.20;99.90
790;DHT22;378;48.844;9.156;2023-08-12T07:07:29;20.30;99.90
790;DHT22;378;48.844;9.156;2023-08-12T07:09:56;20.30;99.90
790;DHT22;378;48.844;9.156;2023-08-12T07:12:24;20.30;99.90
790;DHT22;378;48.844;9.156;2023-08-12T07:14:50;20.40;99.90
790;DHT22;378;48.844;9.156;2023-08-12T07:17:17;20.50;99.90
790;DHT22;378;48.844;9.156;2023-08-12T07:19:44;20.70;99.90
790;DHT22;378;48.844;9.156;2023-08-12T07:22:12;20.70;99.90
790;DHT22;378;48.844;9.156;2023-08-12T07:24:39;20.70;99.90
790;DHT22;378;48.844;9.156;2023-08-12T07:27:06;20.70;99.90
790;DHT22;378;48.844;9.156;2023-08-12T07:29:33;20.80;99.90
790;DHT22;378;48.844;9.156;2023-08-12T07:32:00;20.80;99.90
790;DHT22;378;48.844;9.156;2023-08-12T07:34:26;20.90;99.90
790;DHT22;378;48.844;9.156;2023-08-12T07:36:53;21.00;99.90
790;DHT22;378;48.844;9.156;2023-08-12T07:39:22;21.10;99.90
790;DHT22;378;48.844;9.156;2023-08-12T07:41:48;21.20;99.90
790;DHT22;378;48.844;9.156;2023-08-12T07:44:15;21.30;99.90
790;DHT22;378;48.844;9.156;2023-08-12T07:46:42;21.40;99.90
790;DHT22;378;48.844;9.156;2023-08-12T07:49:09;21.50;99.90
790;DHT22;378;48.844;9.156;2023-08-12T07:51:36;21.60;99.90
790;DHT22;378;48.844;9.156;2023-08-12T07:54:04;21.70;99.90
790;DHT22;378;48.844;9.156;2023-08-12T07:56:32;21.80;99.90
790;DHT22;378;48.844;9.156;2023-08-12T07:58:59;21.90;99.90
790;DHT22;378;48.844;9.156;2023-08-12T08:01:26;21.90;99.90
790;DHT22;378;48.844;9.156;2023-08-12T08:03:53;22.00;99.90
790;DHT22;378;48.844;9.156;2023-08-12T08:06:19;22.20;99.90
790;DHT22;378;48.844;9.156;2023-08-12T08:08:46;22.30;99.90
790;DHT22;378;48.844;9.156;2023-08-12T08:11:13;22.40;99.90
790;DHT22;378;48.844;9.156;2023-08-12T08:13:42;22.30;99.90
790;DHT22;378;48.844;9.156;2023-08-12T08:16:08;22.40;99.90
790;DHT22;378;48.844;9.156;2023-08-12T08:18:35;22.40;99.90
790;DHT22;378;48.844;9.156;2023-08-12T08:21:02;22.60;99.90
790;DHT22;378;48.844;9.156;2023-08-12T08:23:29;22.60;99.90
790;DHT22;378;48.844;9.156;2023-08-12T08:25:56;22.80;99.90
790;DHT22;378;48.844;9.156;2023-08-12T08:28:23;22.90;99.90
790;DHT22;378;48.844;9.156;2023-08-12T08:30:51;22.90;99.90
790;DHT22;378;48.844;9.156;2023-08-12T08:33:18;23.00;99.90
790;DHT22;378;48.844;9.156;2023-08-12T08:35:45;23.00;99.90
790;DHT22;378;48.844;9.156;2023-08-12T08:38:11;23.10;99.90
790;DHT22;378;48.844;9.156;2023-08-12T08:40:38;23.10;99.90
790;DHT22;378;48.844;9.156;2023-08-12T08:43:07;23.20;99.90
790;DHT22;378;48.844;9.156;2023-08-12T08:45:34;23.20;99.90
790;DHT22;378;48.844;9.156;2023-08-12T08:48:05;23.30;99.90
790;DHT22;378;48.844;9.156;2023-08-12T08:50:34;23.50;99.90
790;DHT22;378;48.844;9.156;2023-08-12T08:53:02;23.60;99.90
790;DHT22;378;48.844;9.156;2023-08-12T08:55:31;23.70;99.90
790;DHT22;378;48.844;9.156;2023-08-12T08:57:58;23.80;99.90
790;DHT22;378;48.844;9.156;2023-08-12T09:00:25;23.90;99.90
790;DHT22;378;48.844;9.156;2023-08-12T09:02:55;24.00;99.90
790;DHT22;378;48.844;9.156;2023-08-12T09:05:25;24.10;99.90
790;DHT22;378;48.844;9.156;2023-08-12T09:07:54;24.20;99.90
790;DHT22;378;48.844;9.156;2023-08-12T09:10:24;24.30;99.90
790;DHT22;378;48.844;9.156;2023-08-12T09:12:53;24.40;99.90
790;DHT22;378;48.844;9.156;2023-08-12T09:15:21;24.60;99.90
790;DHT22;378;48.844;9.156;2023-08-12T09:17:48;24.60;99.90
790;DHT22;378;48.844;9.156;2023-08-12T09:20:15;24.70;99.90
790;DHT22;378;48.844;9.156;2023-08-12T09:22:44;24.70;99.90
790;DHT22;378;48.844;9.156;2023-08-12T09:25:14;24.80;99.90
790;DHT22;378;48.844;9.156;2023-08-12T09:27:41;24.80;99.90
790;DHT22;378;48.844;9.156;2023-08-12T09:30:09;24.80;99.90
790;DHT22;378;48.844;9.156;2023-08-12T09:32:38;24.80;99.90
790;DHT22;378;48.844;9.156;2023-08-12T09:35:10;24.90;99.90
790;DHT22;378;48.844;9.156;2023-08-12T09:38:08;25.00;99.90
790;DHT22;378;48.844;9.156;2023-08-12T09:40:39;25.00;99.90
790;DHT22;378;48.844;9.156;2023-08-12T09:43:06;25.10;99.90
790;DHT22;378;48.844;9.156;2023-08-12T09:45:34;25.20;99.90
790;DHT22;378;48.844;9.156;2023-08-12T09:48:02;25.30;99.90
790;DHT22;378;48.844;9.156;2023-08-12T09:50:29;25.40;99.90
790;DHT22;378;48.844;9.156;2023-08-12T09:52:56;25.60;99.90
790;DHT22;378;48.844;9.156;2023-08-12T09:55:25;25.70;99.90
790;DHT22;378;48.844;9.156;2023-08-12T09:57:53;25.90;99.90
790;DHT22;378;48.844;9.156;2023-08-12T10:00:22;26.00;99.90
790;DHT22;378;48.844;9.156;2023-08-12T10:02:52;26.20;99.90
790;DHT22;378;48.844;9.156;2023-08-12T10:05:22;26.30;99.90
790;DHT22;378;48.844;9.156;2023-08-12T10:07:53;26.30;99.90
790;DHT22;378;48.844;9.156;2023-08-12T10:10:20;26.30;99.90
790;DHT22;378;48.844;9.156;2023-08-12T10:12:50;26.30;99.90
790;DHT22;378;48.844;9.156;2023-08-12T10:15:21;26.30;99.90
790;DHT22;378;48.844;9.156;2023-08-12T10:17:52;26.30;99.90
790;DHT22;378;48.844;9.156;2023-08-12T10:20:23;26.40;99.90
790;DHT22;378;48.844;9.156;2023-08-12T10:22:59;26.60;99.90
790;DHT22;378;48.844;9.156;2023-08-12T10:25:37;26.70;99.90
790;DHT22;378;48.844;9.156;2023-08-12T10:28:11;26.80;99.90
790;DHT22;378;48.844;9.156;2023-08-12T10:30:41;26.80;99.90
790;DHT22;378;48.844;9.156;2023-08-12T10:33:09;26.80;99.90
790;DHT22;378;48.844;9.156;2023-08-12T10:35:44;26.80;99.90
790;DHT22;378;48.844;9.156;2023-08-12T10:38:13;26.90;99.90
790;DHT22;378;48.844;9.156;2023-08-12T10:40:41;26.90;99.90
790;DHT22;378;48.844;9.156;2023-08-12T10:43:14;27.00;99.90
790;DHT22;378;48.844;9.156;2023-08-12T10:45:47;27.10;99.90
790;DHT22;378;48.844;9.156;2023-08-12T10:48:33;27.20;99.90
790;DHT22;378;48.844;9.156;2023-08-12T10:51:11;27.30;99.90
790;DHT22;378;48.844;9.156;2023-08-12T10:54:11;27.30;99.90
790;DHT22;378;48.844;9.156;2023-08-12T11:00:02;27.50;99.90
790;DHT22;378;48.844;9.156;2023-08-12T11:02:32;27.60;99.90
790;DHT22;378;48.844;9.156;2023-08-12T11:05:01;27.70;99.90
790;DHT22;378;48.844;9.156;2023-08-12T11:07:33;27.70;99.90
790;DHT22;378;48.844;9.156;2023-08-12T11:10:04;27.80;99.90
790;DHT22;378;48.844;9.156;2023-08-12T11:12:34;28.00;99.90
790;DHT22;378;48.844;9.156;2023-08-12T11:15:04;27.90;99.90
790;DHT22;378;48.844;9.156;2023-08-12T11:17:35;28.00;99.90
790;DHT22;378;48.844;9.156;2023-08-12T11:20:04;28.20;99.90
790;DHT22;378;48.844;9.156;2023-08-12T11:22:35;28.20;99.90
790;DHT22;378;48.844;9.156;2023-08-12T11:25:04;28.20;99.90
790;DHT22;378;48.844;9.156;2023-08-12T11:27:40;28.20;99.90
790;DHT22;378;48.844;9.156;2023-08-12T11:30:10;28.20;99.90
790;DHT22;378;48.844;9.156;2023-08-12T11:32:38;28.00;99.90
790;DHT22;378;48.844;9.156;2023-08-12T11:35:06;28.00;99.90
790;DHT22;378;48.844;9.156;2023-08-12T11:37:34;27.90;99.90
790;DHT22;378;48.844;9.156;2023-08-12T11:40:02;28.00;99.90
790;DHT22;378;48.844;9.156;2023-08-12T11:42:29;28.10;99.90
790;DHT22;378;48.844;9.156;2023-08-12T11:44:56;28.30;99.90
790;DHT22;378;48.844;9.156;2023-08-12T11:47:24;28.50;99.90
790;DHT22;378;48.844;9.156;2023-08-12T11:49:52;28.70;99.90
790;DHT22;378;48.844;9.156;2023-08-12T11:52:20;28.70;99.90
790;DHT22;378;48.844;9.156;2023-08-12T11:54:48;28.70;99.90
790;DHT22;378;48.844;9.156;2023-08-12T11:57:15;28.50;99.90
790;DHT22;378;48.844;9.156;2023-08-12T11:59:42;28.00;99.90
790;DHT22;378;48.844;9.156;2023-08-12T12:02:10;27.30;99.90
790;DHT22;378;48.844;9.156;2023-08-12T12:04:41;26.40;99.90
790;DHT22;378;48.844;9.156;2023-08-12T12:07:19;25.60;99.90
790;DHT22;378;48.844;9.156;2023-08-12T12:09:47;24.60;99.90
790;DHT22;378;48.844;9.156;2023-08-12T12:12:16;23.70;99.90
790;DHT22;378;48.844;9.156;2023-08-12T12:14:43;23.10;99.90
790;DHT22;378;48.844;9.156;2023-08-12T12:17:14;22.60;99.90
790;DHT22;378;48.844;9.156;2023-08-12T12:19:43;22.10;99.90
790;DHT22;378;48.844;9.156;2023-08-12T12:22:10;21.70;99.90
790;DHT22;378;48.844;9.156;2023-08-12T12:24:57;21.50;99.90
790;DHT22;378;48.844;9.156;2023-08-12T12:27:24;21.20;99.90
790;DHT22;378;48.844;9.156;2023-08-12T12:29:51;21.00;99.90
790;DHT22;378;48.844;9.156;2023-08-12T12:32:19;21.00;99.90
790;DHT22;378;48.844;9.156;2023-08-12T12:34:47;20.90;99.90
790;DHT22;378;48.844;9.156;2023-08-12T12:37:14;20.80;99.90
790;DHT22;378;48.844;9.156;2023-08-12T12:39:41;20.70;99.90
790;DHT22;378;48.844;9.156;2023-08-12T12:42:09;20.60;99.90
790;DHT22;378;48.844;9.156;2023-08-12T12:44:36;20.60;99.90
790;DHT22;378;48.844;9.156;2023-08-12T12:47:04;20.70;99.90
790;DHT22;378;48.844;9.156;2023-08-12T12:49:30;20.80;99.90
790;DHT22;378;48.844;9.156;2023-08-12T12:51:59;20.90;99.90
790;DHT22;378;48.844;9.156;2023-08-12T12:54:25;20.90;99.90
790;DHT22;378;48.844;9.156;2023-08-12T12:56:53;21.00;99.90
790;DHT22;378;48.844;9.156;2023-08-12T12:59:19;21.00;99.90
790;DHT22;378;48.844;9.156;2023-08-12T13:01:47;21.10;99.90
790;DHT22;378;48.844;9.156;2023-08-12T13:04:13;21.10;99.90
790;DHT22;378;48.844;9.156;2023-08-12T13:06:40;21.20;99.90
790;DHT22;378;48.844;9.156;2023-08-12T13:09:09;21.30;99.90
790;DHT22;378;48.844;9.156;2023-08-12T13:11:36;21.40;99.90
790;DHT22;378;48.844;9.156;2023-08-12T13:14:07;21.50;99.90
790;DHT22;378;48.844;9.156;2023-08-12T13:16:36;21.60;99.90
790;DHT22;378;48.844;9.156;2023-08-12T13:19:10;21.60;99.90
790;DHT22;378;48.844;9.156;2023-08-12T13:21:48;21.60;99.90
790;DHT22;378;48.844;9.156;2023-08-12T13:24:20;21.80;99.90
790;DHT22;378;48.844;9.156;2023-08-12T13:26:49;21.80;99.90
790;DHT22;378;48.844;9.156;2023-08-12T13:29:29;21.90;99.90
790;DHT22;378;48.844;9.156;2023-08-12T13:32:08;21.90;99.90
790;DHT22;378;48.844;9.156;2023-08-12T13:34:37;21.90;99.90
790;DHT22;378;48.844;9.156;2023-08-12T13:37:04;22.00;99.90
790;DHT22;378;48.844;9.156;2023-08-12T13:39:32;22.00;99.90
790;DHT22;378;48.844;9.156;2023-08-12T13:41:59;22.00;99.90
790;DHT22;378;48.844;9.156;2023-08-12T13:44:26;22.00;99.90
790;DHT22;378;48.844;9.156;2023-08-12T13:46:53;22.00;99.90
790;DHT22;378;48.844;9.156;2023-08-12T13:49:19;22.00;99.90
790;DHT22;378;48.844;9.156;2023-08-12T13:51:46;22.10;99.90
790;DHT22;378;48.844;9.156;2023-08-12T13:54:13;22.20;99.90
790;DHT22;378;48.844;9.156;2023-08-12T13:56:41;22.50;99.90
790;DHT22;378;48.844;9.156;2023-08-12T13:59:08;22.50;99.90
790;DHT22;378;48.844;9.156;2023-08-12T14:01:35;22.60;99.90
790;DHT22;378;48.844;9.156;2023-08-12T14:04:03;22.60;99.90
790;DHT22;378;48.844;9.156;2023-08-12T14:06:30;22.60;99.90
790;DHT22;378;48.844;9.156;2023-08-12T14:08:56;22.70;99.90
790;DHT22;378;48.844;9.156;2023-08-12T14:11:23;22.70;99.90
790;DHT22;378;48.844;9.156;2023-08-12T14:13:51;22.70;99.90
790;DHT22;378;48.844;9.156;2023-08-12T14:16:18;22.80;99.90
790;DHT22;378;48.844;9.156;2023-08-12T14:18:45;22.90;99.90
790;DHT22;378;48.844;9.156;2023-08-12T14:21:12;22.90;99.90
790;DHT22;378;48.844;9.156;2023-08-12T14:23:39;22.90;99.90
790;DHT22;378;48.844;9.156;2023-08-12T14:26:06;22.90;99.90
790;DHT22;378;48.844;9.156;2023-08-12T14:28:33;22.90;99.90
790;DHT22;378;48.844;9.156;2023-08-12T14:31:01;22.90;99.90
790;DHT22;378;48.844;9.156;2023-08-12T14:33:28;22.90;99.90
790;DHT22;378;48.844;9.156;2023-08-12T14:35:57;22.90;99.90
790;DHT22;378;48.844;9.156;2023-08-12T14:38:24;23.10;99.90
790;DHT22;378;48.844;9.156;2023-08-12T14:40:51;23.10;99.90
790;DHT22;378;48.844;9.156;2023-08-12T14:43:19;23.20;99.90
790;DHT22;378;48.844;9.156;2023-08-12T14:45:49;23.20;99.90
790;DHT22;378;48.844;9.156;2023-08-12T14:48:17;23.20;99.90
790;DHT22;378;48.844;9.156;2023-08-12T14:50:44;23.30;99.90
790;DHT22;378;48.844;9.156;2023-08-12T14:53:11;23.30;99.90
790;DHT22;378;48.844;9.156;2023-08-12T14:55:38;23.50;99.90
790;DHT22;378;48.844;9.156;2023-08-12T14:58:04;23.60;99.90
790;DHT22;378;48.844;9.156;2023-08-12T15:00:31;23.80;99.90
790;DHT22;378;48.844;9.156;2023-08-12T15:02:59;24.00;99.90
790;DHT22;378;48.844;9.156;2023-08-12T15:05:27;24.30;99.90
790;DHT22;378;48.844;9.156;2023-08-12T15:07:54;24.80;99.90
790;DHT22;378;48.844;9.156;2023-08-12T15:10:21;25.60;99.90
790;DHT22;378;48.844;9.156;2023-08-12T15:12:47;26.30;99.90
790;DHT22;378;48.844;9.156;2023-08-12T15:15:14;26.50;99.90
790;DHT22;378;48.844;9.156;2023-08-12T15:17:41;26.20;99.90
790;DHT22;378;48.844;9.156;2023-08-12T15:20:08;25.80;99.90
790;DHT22;378;48.844;9.156;2023-08-12T15:22:37;25.40;99.90
790;DHT22;378;48.844;9.156;2023-08-12T15:25:05;25.00;99.90
790;DHT22;378;48.844;9.156;2023-08-12T15:27:32;24.70;99.90
790;DHT22;378;48.844;9.156;2023-08-12T15:29:59;24.40;99.90
790;DHT22;378;48.844;9.156;2023-08-12T15:32:27;24.20;99.90
790;DHT22;378;48.844;9.156;2023-08-12T15:34:54;24.10;99.90
790;DHT22;378;48.844;9.156;2023-08-12T15:37:21;23.90;99.90
790;DHT22;378;48.844;9.156;2023-08-12T15:39:49;23.80;99.90
790;DHT22;378;48.844;9.156;2023-08-12T15:42:15;23.70;99.90
790;DHT22;378;48.844;9.156;2023-08-12T15:44:42;23.60;99.90
790;DHT22;378;48.844;9.156;2023-08-12T15:47:09;23.50;99.90
790;DHT22;378;48.844;9.156;2023-08-12T15:49:36;23.40;99.90
790;DHT22;378;48.844;9.156;2023-08-12T15:52:03;23.40;99.90
790;DHT22;378;48.844;9.156;2023-08-12T15:54:30;23.30;99.90
790;DHT22;378;48.844;9.156;2023-08-12T15:56:58;23.30;99.90
790;DHT22;378;48.844;9.156;2023-08-12T15:59:25;23.20;99.90
790;DHT22;378;48.844;9.156;2023-08-12T16:01:52;23.10;99.90
790;DHT22;378;48.844;9.156;2023-08-12T16:04:19;23.10;99.90
790;DHT22;378;48.844;9.156;2023-08-12T16:06:46;23.00;99.90
790;DHT22;378;48.844;9.156;2023-08-12T16:09:12;23.00;99.90
790;DHT22;378;48.844;9.156;2023-08-12T16:11:39;22.90;99.90
790;DHT22;378;48.844;9.156;2023-08-12T16:14:07;22.80;99.90
790;DHT22;378;48.844;9.156;2023-08-12T16:16:34;22.80;99.90
790;DHT22;378;48.844;9.156;2023-08-12T16:19:01;22.70;99.90
790;DHT22;378;48.844;9.156;2023-08-12T16:21:28;22.70;99.90
790;DHT22;378;48.844;9.156;2023-08-12T16:23:55;22.70;99.90
790;DHT22;378;48.844;9.156;2023-08-12T16:26:22;22.50;99.90
790;DHT22;378;48.844;9.156;2023-08-12T16:28:49;22.50;99.90
790;DHT22;378;48.844;9.156;2023-08-12T16:31:17;22.40;99.90
790;DHT22;378;48.844;9.156;2023-08-12T16:33:44;22.30;99.90
790;DHT22;378;48.844;9.156;2023-08-12T16:36:11;22.20;99.90
790;DHT22;378;48.844;9.156;2023-08-12T16:38:37;22.10;99.90
790;DHT22;378;48.844;9.156;2023-08-12T16:41:04;22.10;99.90
790;DHT22;378;48.844;9.156;2023-08-12T16:43:31;22.00;99.90